sensor_id;sensor_type;location;lat;lon;timestamp;pressure;altitude;pressure_sealevel;temperature;humidity
73952;BME280;62304;47.662;18.324;2023-02-26T00:01:13;99196.41;;;3.56;75.26
73952;BME280;62304;47.662;18.324;2023-02-26T00:04:17;99193.75;;;3.44;75.66
73952;BME280;62304;47.662;18.324;2023-02-26T00:07:19;99197.72;;;3.47;75.73
73952;BME280;62304;47.662;18.324;2023-02-26T00:10:22;99189.56;;;3.35;76.31
73952;BME280;62304;47.662;18.324;2023-02-26T00:13:25;99212.38;;;3.39;76.03
73952;BME280;62304;47.662;18.324;2023-02-26T00:16:34;99241.28;;;3.36;75.77
73952;BME280;62304;47.662;18.324;2023-02-26T00:19:37;99223.50;;;3.30;76.46
73952;BME280;62304;47.662;18.324;2023-02-26T00:22:41;99206.72;;;3.32;76.55
73952;BME280;62304;47.662;18.324;2023-02-26T00:25:45;99211.84;;;3.33;76.14
73952;BME280;62304;47.662;18.324;2023-02-26T00:28:48;99220.00;;;3.18;76.65
73952;BME280;62304;47.662;18.324;2023-02-26T00:31:52;99208.63;;;3.31;76.29
73952;BME280;62304;47.662;18.324;2023-02-26T00:34:57;99195.44;;;3.21;76.64
73952;BME280;62304;47.662;18.324;2023-02-26T00:38:20;99195.44;;;3.21;76.67
73952;BME280;62304;47.662;18.324;2023-02-26T00:41:23;99187.75;;;3.11;76.82
73952;BME280;62304;47.662;18.324;2023-02-26T00:44:26;99180.22;;;3.08;77.44
73952;BME280;62304;47.662;18.324;2023-02-26T00:47:48;99171.56;;;3.06;77.21
73952;BME280;62304;47.662;18.324;2023-02-26T00:54:23;99205.09;;;3.03;77.44
73952;BME280;62304;47.662;18.324;2023-02-26T00:57:27;99216.41;;;3.02;77.44
73952;BME280;62304;47.662;18.324;2023-02-26T01:00:30;99205.59;;;2.93;77.79
73952;BME280;62304;47.662;18.324;2023-02-26T01:03:33;99225.56;;;2.94;77.83
73952;BME280;62304;47.662;18.324;2023-02-26T01:06:41;99235.38;;;2.95;77.97
73952;BME280;62304;47.662;18.324;2023-02-26T01:09:46;99242.69;;;2.91;77.96
73952;BME280;62304;47.662;18.324;2023-02-26T01:12:49;99240.19;;;2.98;78.39
73952;BME280;62304;47.662;18.324;2023-02-26T01:15:58;99234.56;;;2.94;77.90
73952;BME280;62304;47.662;18.324;2023-02-26T01:19:12;99224.37;;;2.79;78.76
73952;BME280;62304;47.662;18.324;2023-02-26T01:22:21;99223.78;;;2.74;79.04
73952;BME280;62304;47.662;18.324;2023-02-26T01:28:34;99209.88;;;2.79;79.14
73952;BME280;62304;47.662;18.324;2023-02-26T01:45:10;99188.97;;;2.86;78.03
73952;BME280;62304;47.662;18.324;2023-02-26T01:48:19;99185.22;;;2.79;77.97
73952;BME280;62304;47.662;18.324;2023-02-26T01:54:41;99198.38;;;2.73;77.48
73952;BME280;62304;47.662;18.324;2023-02-26T01:57:44;99197.81;;;2.68;77.39
73952;BME280;62304;47.662;18.324;2023-02-26T02:00:47;99201.34;;;2.68;77.30
73952;BME280;62304;47.662;18.324;2023-02-26T02:03:50;99192.81;;;2.58;77.54
73952;BME280;62304;47.662;18.324;2023-02-26T02:06:53;99177.19;;;2.58;77.34
73952;BME280;62304;47.662;18.324;2023-02-26T02:09:57;99181.50;;;2.59;77.19
73952;BME280;62304;47.662;18.324;2023-02-26T02:13:14;99185.06;;;2.60;77.16
73952;BME280;62304;47.662;18.324;2023-02-26T02:32:48;99228.06;;;2.47;76.96
73952;BME280;62304;47.662;18.324;2023-02-26T02:36:09;99236.47;;;2.54;76.90
73952;BME280;62304;47.662;18.324;2023-02-26T02:39:20;99229.41;;;2.53;76.58
73952;BME280;62304;47.662;18.324;2023-02-26T02:42:31;99240.06;;;2.43;76.90
73952;BME280;62304;47.662;18.324;2023-02-26T02:48:53;99252.94;;;2.30;77.21
73952;BME280;62304;47.662;18.324;2023-02-26T02:52:18;99258.41;;;2.30;77.11
73952;BME280;62304;47.662;18.324;2023-02-26T02:55:30;99259.06;;;2.27;77.42
73952;BME280;62304;47.662;18.324;2023-02-26T02:58:40;99250.41;;;2.25;77.85
73952;BME280;62304;47.662;18.324;2023-02-26T03:01:48;99250.66;;;2.20;78.02
73952;BME280;62304;47.662;18.324;2023-02-26T03:04:52;99234.56;;;2.31;77.85
73952;BME280;62304;47.662;18.324;2023-02-26T03:08:07;99216.44;;;2.38;77.64
73952;BME280;62304;47.662;18.324;2023-02-26T03:11:11;99213.47;;;2.43;77.22
73952;BME280;62304;47.662;18.324;2023-02-26T03:14:15;99241.63;;;2.44;76.93
73952;BME280;62304;47.662;18.324;2023-02-26T03:17:28;99247.56;;;2.46;76.86
73952;BME280;62304;47.662;18.324;2023-02-26T03:20:37;99251.56;;;2.36;77.00
73952;BME280;62304;47.662;18.324;2023-02-26T03:23:52;99269.69;;;2.29;77.51
73952;BME280;62304;47.662;18.324;2023-02-26T03:36:35;99258.19;;;2.23;77.12
73952;BME280;62304;47.662;18.324;2023-02-26T03:39:46;99271.03;;;2.23;77.10
73952;BME280;62304;47.662;18.324;2023-02-26T03:42:56;99292.37;;;2.17;77.20
73952;BME280;62304;47.662;18.324;2023-02-26T03:46:04;99316.50;;;2.15;77.20
73952;BME280;62304;47.662;18.324;2023-02-26T03:49:12;99311.97;;;2.19;77.19
73952;BME280;62304;47.662;18.324;2023-02-26T03:52:17;99277.09;;;2.28;76.96
73952;BME280;62304;47.662;18.324;2023-02-26T03:55:37;99260.09;;;2.23;76.97
73952;BME280;62304;47.662;18.324;2023-02-26T03:58:42;99249.75;;;2.28;76.56
73952;BME280;62304;47.662;18.324;2023-02-26T04:01:57;99272.31;;;2.25;76.54
73952;BME280;62304;47.662;18.324;2023-02-26T04:05:09;99273.78;;;2.23;76.51
73952;BME280;62304;47.662;18.324;2023-02-26T04:08:14;99296.09;;;2.13;76.77
73952;BME280;62304;47.662;18.324;2023-02-26T04:11:19;99311.12;;;2.07;77.02
73952;BME280;62304;47.662;18.324;2023-02-26T04:14:23;99310.56;;;2.01;77.16
73952;BME280;62304;47.662;18.324;2023-02-26T04:17:27;99310.69;;;2.05;77.26
73952;BME280;62304;47.662;18.324;2023-02-26T04:20:32;99326.78;;;2.06;76.95
73952;BME280;62304;47.662;18.324;2023-02-26T04:23:36;99340.66;;;2.01;77.13
73952;BME280;62304;47.662;18.324;2023-02-26T04:26:39;99361.16;;;1.95;77.58
73952;BME280;62304;47.662;18.324;2023-02-26T04:29:42;99331.06;;;1.95;77.40
73952;BME280;62304;47.662;18.324;2023-02-26T04:32:45;99329.56;;;1.98;77.32
73952;BME280;62304;47.662;18.324;2023-02-26T04:35:48;99323.31;;;1.97;77.51
73952;BME280;62304;47.662;18.324;2023-02-26T04:38:51;99322.19;;;1.98;77.48
73952;BME280;62304;47.662;18.324;2023-02-26T04:41:55;99324.78;;;1.95;77.66
73952;BME280;62304;47.662;18.324;2023-02-26T04:44:57;99349.41;;;1.95;77.85
73952;BME280;62304;47.662;18.324;2023-02-26T04:48:01;99357.28;;;1.96;77.70
73952;BME280;62304;47.662;18.324;2023-02-26T04:51:04;99351.00;;;1.96;77.49
73952;BME280;62304;47.662;18.324;2023-02-26T04:54:08;99351.81;;;1.96;77.67
73952;BME280;62304;47.662;18.324;2023-02-26T04:57:11;99343.94;;;1.95;77.79
73952;BME280;62304;47.662;18.324;2023-02-26T05:00:14;99349.06;;;1.96;77.94
73952;BME280;62304;47.662;18.324;2023-02-26T05:03:18;99326.84;;;1.98;77.83
73952;BME280;62304;47.662;18.324;2023-02-26T05:06:21;99315.56;;;1.99;77.92
73952;BME280;62304;47.662;18.324;2023-02-26T05:09:24;99332.78;;;2.00;77.77
73952;BME280;62304;47.662;18.324;2023-02-26T05:12:27;99338.59;;;1.98;77.97
73952;BME280;62304;47.662;18.324;2023-02-26T05:15:30;99325.16;;;2.05;77.70
73952;BME280;62304;47.662;18.324;2023-02-26T05:18:34;99334.59;;;1.96;78.01
73952;BME280;62304;47.662;18.324;2023-02-26T05:21:36;99364.22;;;1.94;78.03
73952;BME280;62304;47.662;18.324;2023-02-26T05:24:40;99379.16;;;1.96;78.08
73952;BME280;62304;47.662;18.324;2023-02-26T05:27:42;99376.06;;;1.98;78.10
73952;BME280;62304;47.662;18.324;2023-02-26T05:30:46;99379.38;;;2.03;77.70
73952;BME280;62304;47.662;18.324;2023-02-26T05:33:48;99390.97;;;2.00;78.06
73952;BME280;62304;47.662;18.324;2023-02-26T05:36:51;99383.50;;;2.09;78.05
73952;BME280;62304;47.662;18.324;2023-02-26T05:39:54;99368.94;;;2.17;77.49
73952;BME280;62304;47.662;18.324;2023-02-26T05:42:57;99368.47;;;2.15;77.57
73952;BME280;62304;47.662;18.324;2023-02-26T05:46:00;99404.97;;;2.19;77.71
73952;BME280;62304;47.662;18.324;2023-02-26T05:49:03;99408.44;;;2.08;77.98
73952;BME280;62304;47.662;18.324;2023-02-26T05:52:06;99428.75;;;2.19;78.03
73952;BME280;62304;47.662;18.324;2023-02-26T05:55:10;99425.47;;;2.13;77.96
73952;BME280;62304;47.662;18.324;2023-02-26T05:58:13;99408.09;;;1.97;78.63
73952;BME280;62304;47.662;18.324;2023-02-26T06:01:17;99413.00;;;2.04;78.64
73952;BME280;62304;47.662;18.324;2023-02-26T06:04:20;99431.91;;;2.09;78.51
73952;BME280;62304;47.662;18.324;2023-02-26T06:07:23;99463.03;;;2.04;78.31
73952;BME280;62304;47.662;18.324;2023-02-26T06:10:26;99454.75;;;1.92;79.05
73952;BME280;62304;47.662;18.324;2023-02-26T06:13:29;99448.47;;;1.92;79.88
73952;BME280;62304;47.662;18.324;2023-02-26T06:16:32;99451.22;;;1.92;79.48
73952;BME280;62304;47.662;18.324;2023-02-26T06:19:37;99461.56;;;1.86;79.78
73952;BME280;62304;47.662;18.324;2023-02-26T06:22:40;99449.03;;;1.85;79.84
73952;BME280;62304;47.662;18.324;2023-02-26T06:25:43;99435.50;;;1.89;80.15
73952;BME280;62304;47.662;18.324;2023-02-26T06:28:47;99459.09;;;1.93;79.97
73952;BME280;62304;47.662;18.324;2023-02-26T06:31:50;99484.97;;;1.96;79.73
73952;BME280;62304;47.662;18.324;2023-02-26T06:34:53;99499.91;;;1.98;80.19
73952;BME280;62304;47.662;18.324;2023-02-26T06:37:56;99483.31;;;2.03;79.86
73952;BME280;62304;47.662;18.324;2023-02-26T06:40:59;99512.84;;;2.10;79.93
73952;BME280;62304;47.662;18.324;2023-02-26T06:44:03;99500.09;;;2.14;80.20
73952;BME280;62304;47.662;18.324;2023-02-26T06:47:06;99511.63;;;2.19;79.85
73952;BME280;62304;47.662;18.324;2023-02-26T06:50:09;99511.75;;;2.23;79.79
73952;BME280;62304;47.662;18.324;2023-02-26T06:53:13;99515.34;;;2.35;79.68
73952;BME280;62304;47.662;18.324;2023-02-26T06:56:15;99524.22;;;2.32;79.57
73952;BME280;62304;47.662;18.324;2023-02-26T06:59:19;99510.88;;;2.31;79.60
73952;BME280;62304;47.662;18.324;2023-02-26T07:02:23;99513.69;;;2.22;79.50
73952;BME280;62304;47.662;18.324;2023-02-26T07:05:26;99524.62;;;2.22;79.95
73952;BME280;62304;47.662;18.324;2023-02-26T07:08:29;99509.62;;;2.28;79.97
73952;BME280;62304;47.662;18.324;2023-02-26T07:11:32;99491.69;;;2.51;79.10
73952;BME280;62304;47.662;18.324;2023-02-26T07:14:35;99479.22;;;3.10;77.47
73952;BME280;62304;47.662;18.324;2023-02-26T07:17:38;99484.16;;;2.93;77.01
73952;BME280;62304;47.662;18.324;2023-02-26T07:20:41;99514.94;;;3.02;76.87
73952;BME280;62304;47.662;18.324;2023-02-26T07:23:45;99526.84;;;3.30;76.43
73952;BME280;62304;47.662;18.324;2023-02-26T07:26:48;99520.09;;;3.63;75.12
73952;BME280;62304;47.662;18.324;2023-02-26T07:29:51;99511.63;;;3.80;74.13
73952;BME280;62304;47.662;18.324;2023-02-26T07:32:54;99514.19;;;4.01;73.58
73952;BME280;62304;47.662;18.324;2023-02-26T07:35:57;99508.34;;;4.14;73.12
73952;BME280;62304;47.662;18.324;2023-02-26T07:39:00;99513.63;;;4.07;72.91
73952;BME280;62304;47.662;18.324;2023-02-26T07:42:03;99518.66;;;3.93;73.97
73952;BME280;62304;47.662;18.324;2023-02-26T07:45:08;99524.94;;;4.06;72.82
73952;BME280;62304;47.662;18.324;2023-02-26T07:48:11;99524.34;;;5.26;68.35
73952;BME280;62304;47.662;18.324;2023-02-26T07:51:14;99513.78;;;6.47;65.84
73952;BME280;62304;47.662;18.324;2023-02-26T07:54:17;99524.97;;;6.00;64.84
73952;BME280;62304;47.662;18.324;2023-02-26T07:57:20;99522.53;;;6.33;64.53
73952;BME280;62304;47.662;18.324;2023-02-26T08:00:24;99527.31;;;5.67;65.33
73952;BME280;62304;47.662;18.324;2023-02-26T08:03:27;99506.88;;;5.99;64.39
73952;BME280;62304;47.662;18.324;2023-02-26T08:06:30;99508.72;;;5.95;65.17
73952;BME280;62304;47.662;18.324;2023-02-26T08:09:33;99531.28;;;6.01;63.67
73952;BME280;62304;47.662;18.324;2023-02-26T08:12:37;99518.53;;;7.33;61.20
73952;BME280;62304;47.662;18.324;2023-02-26T08:15:40;99522.53;;;7.61;58.34
73952;BME280;62304;47.662;18.324;2023-02-26T08:18:45;99517.25;;;7.75;58.27
73952;BME280;62304;47.662;18.324;2023-02-26T08:21:49;99502.50;;;7.90;56.43
73952;BME280;62304;47.662;18.324;2023-02-26T08:24:52;99507.50;;;8.70;56.13
73952;BME280;62304;47.662;18.324;2023-02-26T08:27:55;99528.53;;;8.19;56.34
73952;BME280;62304;47.662;18.324;2023-02-26T08:31:00;99544.09;;;8.04;55.54
73952;BME280;62304;47.662;18.324;2023-02-26T08:34:04;99527.69;;;6.95;56.38
73952;BME280;62304;47.662;18.324;2023-02-26T08:37:07;99539.97;;;6.98;56.71
73952;BME280;62304;47.662;18.324;2023-02-26T08:40:13;99546.03;;;7.74;55.29
73952;BME280;62304;47.662;18.324;2023-02-26T08:43:17;99545.56;;;7.46;55.53
73952;BME280;62304;47.662;18.324;2023-02-26T08:46:20;99553.09;;;7.72;55.14
73952;BME280;62304;47.662;18.324;2023-02-26T08:49:23;99546.13;;;7.81;54.76
73952;BME280;62304;47.662;18.324;2023-02-26T08:52:26;99555.81;;;8.20;53.46
73952;BME280;62304;47.662;18.324;2023-02-26T08:55:29;99567.81;;;7.79;52.70
73952;BME280;62304;47.662;18.324;2023-02-26T08:58:32;99572.63;;;7.86;52.93
73952;BME280;62304;47.662;18.324;2023-02-26T09:01:35;99567.63;;;7.24;54.43
73952;BME280;62304;47.662;18.324;2023-02-26T09:04:38;99555.12;;;7.07;54.11
73952;BME280;62304;47.662;18.324;2023-02-26T09:07:42;99556.19;;;7.03;54.18
73952;BME280;62304;47.662;18.324;2023-02-26T09:10:45;99563.34;;;7.49;52.97
73952;BME280;62304;47.662;18.324;2023-02-26T09:13:48;99556.12;;;6.99;53.92
73952;BME280;62304;47.662;18.324;2023-02-26T09:16:52;99578.62;;;7.01;54.01
73952;BME280;62304;47.662;18.324;2023-02-26T09:19:54;99577.13;;;7.71;52.75
73952;BME280;62304;47.662;18.324;2023-02-26T09:22:57;99573.50;;;7.67;52.76
73952;BME280;62304;47.662;18.324;2023-02-26T09:26:00;99576.81;;;7.76;52.58
73952;BME280;62304;47.662;18.324;2023-02-26T09:29:03;99564.97;;;8.24;51.33
73952;BME280;62304;47.662;18.324;2023-02-26T09:32:06;99564.50;;;9.18;48.82
73952;BME280;62304;47.662;18.324;2023-02-26T09:35:10;99562.94;;;10.04;46.92
73952;BME280;62304;47.662;18.324;2023-02-26T09:38:13;99566.03;;;10.56;45.66
73952;BME280;62304;47.662;18.324;2023-02-26T09:41:27;99554.31;;;10.19;46.12
73952;BME280;62304;47.662;18.324;2023-02-26T09:44:33;99566.09;;;9.55;47.68
73952;BME280;62304;47.662;18.324;2023-02-26T09:47:42;99567.84;;;9.34;48.19
73952;BME280;62304;47.662;18.324;2023-02-26T09:50:54;99575.78;;;8.66;48.21
73952;BME280;62304;47.662;18.324;2023-02-26T09:53:58;99586.19;;;8.20;49.22
73952;BME280;62304;47.662;18.324;2023-02-26T09:57:03;99593.47;;;8.32;48.16
73952;BME280;62304;47.662;18.324;2023-02-26T10:10:27;99635.53;;;9.07;46.74
73952;BME280;62304;47.662;18.324;2023-02-26T10:13:41;99631.12;;;9.75;45.80
73952;BME280;62304;47.662;18.324;2023-02-26T10:17:05;99645.28;;;10.64;44.12
73952;BME280;62304;47.662;18.324;2023-02-26T10:20:48;99640.56;;;10.68;43.58
73952;BME280;62304;47.662;18.324;2023-02-26T10:23:49;99641.03;;;10.81;41.61
73952;BME280;62304;47.662;18.324;2023-02-26T10:26:59;99651.75;;;10.82;42.41
73952;BME280;62304;47.662;18.324;2023-02-26T10:30:20;99647.78;;;9.82;43.88
73952;BME280;62304;47.662;18.324;2023-02-26T10:33:49;99645.31;;;9.34;45.35
73952;BME280;62304;47.662;18.324;2023-02-26T10:40:52;99661.69;;;8.28;46.37
73952;BME280;62304;47.662;18.324;2023-02-26T10:44:12;99652.59;;;8.27;46.80
73952;BME280;62304;47.662;18.324;2023-02-26T10:47:34;99655.69;;;8.48;46.46
73952;BME280;62304;47.662;18.324;2023-02-26T10:50:47;99654.03;;;8.44;46.42
73952;BME280;62304;47.662;18.324;2023-02-26T10:53:58;99646.44;;;8.93;45.86
73952;BME280;62304;47.662;18.324;2023-02-26T10:57:02;99654.44;;;9.01;45.77
73952;BME280;62304;47.662;18.324;2023-02-26T11:00:06;99663.31;;;8.84;45.63
73952;BME280;62304;47.662;18.324;2023-02-26T11:03:33;99650.78;;;8.94;45.77
73952;BME280;62304;47.662;18.324;2023-02-26T11:06:50;99661.38;;;8.59;45.65
73952;BME280;62304;47.662;18.324;2023-02-26T11:09:58;99667.53;;;8.49;46.01
73952;BME280;62304;47.662;18.324;2023-02-26T11:13:02;99659.81;;;8.61;46.30
73952;BME280;62304;47.662;18.324;2023-02-26T11:16:14;99661.19;;;8.74;46.22
73952;BME280;62304;47.662;18.324;2023-02-26T11:19:25;99657.00;;;8.87;45.63
73952;BME280;62304;47.662;18.324;2023-02-26T11:22:32;99657.25;;;9.05;45.90
73952;BME280;62304;47.662;18.324;2023-02-26T11:25:37;99657.56;;;9.00;46.48
73952;BME280;62304;47.662;18.324;2023-02-26T11:28:46;99659.09;;;9.63;45.42
73952;BME280;62304;47.662;18.324;2023-02-26T11:31:51;99670.50;;;9.98;43.96
73952;BME280;62304;47.662;18.324;2023-02-26T11:34:55;99676.94;;;10.06;43.47
73952;BME280;62304;47.662;18.324;2023-02-26T11:38:00;99665.97;;;10.77;42.34
73952;BME280;62304;47.662;18.324;2023-02-26T11:41:05;99667.97;;;10.84;41.81
73952;BME280;62304;47.662;18.324;2023-02-26T11:44:33;99655.88;;;11.27;40.21
73952;BME280;62304;47.662;18.324;2023-02-26T11:47:37;99674.00;;;11.00;40.29
73952;BME280;62304;47.662;18.324;2023-02-26T11:50:47;99671.34;;;10.49;41.18
73952;BME280;62304;47.662;18.324;2023-02-26T11:53:55;99665.37;;;10.47;41.88
73952;BME280;62304;47.662;18.324;2023-02-26T11:57:05;99671.13;;;10.21;42.34
73952;BME280;62304;47.662;18.324;2023-02-26T12:03:36;99680.47;;;9.30;44.04
73952;BME280;62304;47.662;18.324;2023-02-26T12:06:45;99680.56;;;9.04;44.60
73952;BME280;62304;47.662;18.324;2023-02-26T12:09:49;99679.66;;;8.67;45.49
73952;BME280;62304;47.662;18.324;2023-02-26T12:19:45;99680.94;;;8.21;46.60
73952;BME280;62304;47.662;18.324;2023-02-26T12:29:58;99689.44;;;7.90;47.45
73952;BME280;62304;47.662;18.324;2023-02-26T12:46:53;99713.59;;;7.74;47.80
73952;BME280;62304;47.662;18.324;2023-02-26T13:00:47;99731.44;;;7.38;48.33
73952;BME280;62304;47.662;18.324;2023-02-26T13:20:57;99748.00;;;7.19;48.29
73952;BME280;62304;47.662;18.324;2023-02-26T13:24:09;99741.87;;;7.10;48.73
73952;BME280;62304;47.662;18.324;2023-02-26T13:27:14;99744.56;;;7.07;48.64
73952;BME280;62304;47.662;18.324;2023-02-26T13:30:37;99752.91;;;7.10;48.91
73952;BME280;62304;47.662;18.324;2023-02-26T13:33:45;99757.56;;;7.25;48.70
73952;BME280;62304;47.662;18.324;2023-02-26T13:36:49;99755.81;;;7.17;48.39
73952;BME280;62304;47.662;18.324;2023-02-26T13:43:49;99764.34;;;6.93;48.73
73952;BME280;62304;47.662;18.324;2023-02-26T13:51:24;99782.91;;;6.62;48.54
73952;BME280;62304;47.662;18.324;2023-02-26T13:57:47;99782.44;;;6.60;49.08
73952;BME280;62304;47.662;18.324;2023-02-26T14:01:07;99784.84;;;6.61;49.00
73952;BME280;62304;47.662;18.324;2023-02-26T14:08:09;99806.66;;;6.51;49.15
73952;BME280;62304;47.662;18.324;2023-02-26T14:11:27;99802.91;;;6.43;49.37
73952;BME280;62304;47.662;18.324;2023-02-26T14:17:50;99823.88;;;6.48;48.81
73952;BME280;62304;47.662;18.324;2023-02-26T14:24:31;99815.69;;;6.36;49.19
73952;BME280;62304;47.662;18.324;2023-02-26T14:27:41;99824.69;;;6.48;49.09
73952;BME280;62304;47.662;18.324;2023-02-26T14:30:49;99819.69;;;6.38;49.21
73952;BME280;62304;47.662;18.324;2023-02-26T14:37:07;99832.00;;;6.13;49.24
73952;BME280;62304;47.662;18.324;2023-02-26T14:40:18;99828.81;;;5.96;49.30
73952;BME280;62304;47.662;18.324;2023-02-26T14:43:41;99840.59;;;5.96;49.24
73952;BME280;62304;47.662;18.324;2023-02-26T14:46:45;99840.50;;;5.93;48.45
73952;BME280;62304;47.662;18.324;2023-02-26T14:49:50;99850.72;;;5.92;49.01
73952;BME280;62304;47.662;18.324;2023-02-26T14:53:42;99864.03;;;5.78;49.28
73952;BME280;62304;47.662;18.324;2023-02-26T15:17:08;99894.91;;;5.08;50.75
73952;BME280;62304;47.662;18.324;2023-02-26T15:20:29;99893.31;;;5.07;50.95
73952;BME280;62304;47.662;18.324;2023-02-26T15:23:53;99902.59;;;5.03;51.08
73952;BME280;62304;47.662;18.324;2023-02-26T15:27:00;99906.97;;;4.92;51.09
73952;BME280;62304;47.662;18.324;2023-02-26T15:30:06;99904.75;;;4.85;50.84
73952;BME280;62304;47.662;18.324;2023-02-26T15:33:13;99914.16;;;4.84;51.14
73952;BME280;62304;47.662;18.324;2023-02-26T15:36:19;99899.50;;;4.80;51.16
73952;BME280;62304;47.662;18.324;2023-02-26T15:39:26;99921.84;;;4.79;51.25
73952;BME280;62304;47.662;18.324;2023-02-26T15:42:34;99917.34;;;4.74;51.20
73952;BME280;62304;47.662;18.324;2023-02-26T15:45:44;99927.41;;;4.70;51.23
73952;BME280;62304;47.662;18.324;2023-02-26T15:48:49;99934.41;;;4.68;51.45
73952;BME280;62304;47.662;18.324;2023-02-26T15:51:54;99934.28;;;4.64;51.48
73952;BME280;62304;47.662;18.324;2023-02-26T15:55:03;99931.41;;;4.61;51.66
73952;BME280;62304;47.662;18.324;2023-02-26T15:58:08;99937.22;;;4.59;51.45
73952;BME280;62304;47.662;18.324;2023-02-26T16:01:17;99936.34;;;4.55;51.45
73952;BME280;62304;47.662;18.324;2023-02-26T16:04:24;99942.50;;;4.52;51.32
73952;BME280;62304;47.662;18.324;2023-02-26T16:07:27;99950.16;;;4.47;51.44
73952;BME280;62304;47.662;18.324;2023-02-26T16:10:38;99955.53;;;4.43;51.54
73952;BME280;62304;47.662;18.324;2023-02-26T16:13:43;99958.94;;;4.40;51.72
73952;BME280;62304;47.662;18.324;2023-02-26T16:16:51;99956.41;;;4.35;51.97
73952;BME280;62304;47.662;18.324;2023-02-26T16:19:59;99966.00;;;4.29;52.38
73952;BME280;62304;47.662;18.324;2023-02-26T16:23:11;99975.59;;;4.23;52.71
73952;BME280;62304;47.662;18.324;2023-02-26T16:26:21;99989.31;;;4.23;52.50
73952;BME280;62304;47.662;18.324;2023-02-26T16:29:29;99982.75;;;4.16;52.77
73952;BME280;62304;47.662;18.324;2023-02-26T16:32:33;100000.03;;;4.16;52.72
73952;BME280;62304;47.662;18.324;2023-02-26T16:36:01;100001.38;;;4.10;52.77
73952;BME280;62304;47.662;18.324;2023-02-26T16:42:18;100021.03;;;3.92;54.21
73952;BME280;62304;47.662;18.324;2023-02-26T16:48:51;100028.41;;;3.79;55.83
73952;BME280;62304;47.662;18.324;2023-02-26T16:51:55;100031.78;;;3.76;56.89
73952;BME280;62304;47.662;18.324;2023-02-26T16:55:03;100037.75;;;3.78;56.18
73952;BME280;62304;47.662;18.324;2023-02-26T16:58:10;100040.69;;;3.73;57.47
73952;BME280;62304;47.662;18.324;2023-02-26T17:01:17;100048.59;;;3.75;57.43
73952;BME280;62304;47.662;18.324;2023-02-26T17:04:29;100039.09;;;3.72;57.21
73952;BME280;62304;47.662;18.324;2023-02-26T17:07:36;100048.44;;;3.71;58.30
73952;BME280;62304;47.662;18.324;2023-02-26T17:10:54;100055.06;;;3.70;58.30
73952;BME280;62304;47.662;18.324;2023-02-26T17:14:15;100064.56;;;3.73;58.24
73952;BME280;62304;47.662;18.324;2023-02-26T17:17:24;100063.66;;;3.60;58.98
73952;BME280;62304;47.662;18.324;2023-02-26T17:20:29;100069.44;;;3.67;58.24
73952;BME280;62304;47.662;18.324;2023-02-26T17:23:37;100077.50;;;3.72;58.55
73952;BME280;62304;47.662;18.324;2023-02-26T17:26:42;100077.81;;;3.71;58.53
73952;BME280;62304;47.662;18.324;2023-02-26T17:29:48;100076.06;;;3.66;58.56
73952;BME280;62304;47.662;18.324;2023-02-26T17:32:54;100078.97;;;3.70;58.49
73952;BME280;62304;47.662;18.324;2023-02-26T17:36:02;100081.56;;;3.66;58.94
73952;BME280;62304;47.662;18.324;2023-02-26T17:39:10;100077.37;;;3.60;59.06
73952;BME280;62304;47.662;18.324;2023-02-26T17:42:18;100073.53;;;3.61;58.68
73952;BME280;62304;47.662;18.324;2023-02-26T17:45:25;100085.47;;;3.57;58.94
73952;BME280;62304;47.662;18.324;2023-02-26T17:48:29;100082.84;;;3.60;58.58
73952;BME280;62304;47.662;18.324;2023-02-26T17:51:34;100080.78;;;3.57;58.91
73952;BME280;62304;47.662;18.324;2023-02-26T17:54:38;100086.91;;;3.54;58.60
73952;BME280;62304;47.662;18.324;2023-02-26T17:57:43;100078.38;;;3.56;58.16
73952;BME280;62304;47.662;18.324;2023-02-26T18:00:49;100081.25;;;3.59;57.50
73952;BME280;62304;47.662;18.324;2023-02-26T18:03:56;100079.19;;;3.56;57.08
73952;BME280;62304;47.662;18.324;2023-02-26T18:07:00;100085.63;;;3.52;57.35
73952;BME280;62304;47.662;18.324;2023-02-26T18:10:05;100090.47;;;3.55;57.26
73952;BME280;62304;47.662;18.324;2023-02-26T18:13:10;100094.03;;;3.55;57.08
73952;BME280;62304;47.662;18.324;2023-02-26T18:16:18;100084.41;;;3.41;57.18
73952;BME280;62304;47.662;18.324;2023-02-26T18:19:24;100083.94;;;3.39;57.30
73952;BME280;62304;47.662;18.324;2023-02-26T18:22:28;100086.06;;;3.33;57.22
73952;BME280;62304;47.662;18.324;2023-02-26T18:25:33;100092.47;;;3.37;57.05
73952;BME280;62304;47.662;18.324;2023-02-26T18:28:40;100087.53;;;3.31;57.21
73952;BME280;62304;47.662;18.324;2023-02-26T18:31:44;100096.53;;;3.31;57.16
73952;BME280;62304;47.662;18.324;2023-02-26T18:34:49;100096.59;;;3.14;57.49
73952;BME280;62304;47.662;18.324;2023-02-26T18:37:54;100103.81;;;3.19;57.25
73952;BME280;62304;47.662;18.324;2023-02-26T18:40:57;100105.63;;;3.15;57.30
73952;BME280;62304;47.662;18.324;2023-02-26T18:44:04;100107.91;;;3.04;57.66
73952;BME280;62304;47.662;18.324;2023-02-26T18:47:10;100118.41;;;3.02;57.97
73952;BME280;62304;47.662;18.324;2023-02-26T18:50:16;100110.50;;;3.01;57.85
73952;BME280;62304;47.662;18.324;2023-02-26T18:53:22;100109.53;;;2.97;57.91
73952;BME280;62304;47.662;18.324;2023-02-26T18:56:26;100114.06;;;2.93;58.17
73952;BME280;62304;47.662;18.324;2023-02-26T18:59:31;100121.63;;;2.96;58.14
73952;BME280;62304;47.662;18.324;2023-02-26T19:02:37;100122.28;;;3.01;58.17
73952;BME280;62304;47.662;18.324;2023-02-26T19:05:42;100120.03;;;2.95;58.18
73952;BME280;62304;47.662;18.324;2023-02-26T19:08:45;100121.75;;;3.08;58.04
73952;BME280;62304;47.662;18.324;2023-02-26T19:11:50;100127.75;;;3.01;58.07
73952;BME280;62304;47.662;18.324;2023-02-26T19:14:54;100132.91;;;3.03;57.98
73952;BME280;62304;47.662;18.324;2023-02-26T19:17:58;100132.91;;;3.03;57.89
73952;BME280;62304;47.662;18.324;2023-02-26T19:21:02;100136.44;;;3.03;58.00
73952;BME280;62304;47.662;18.324;2023-02-26T19:24:10;100133.06;;;2.98;58.08